Time;durP1;ratioP1;P1;durP2;ratioP2;P2;SDS_P1;SDS_P2;PMS_P1;PMS_P2;Temp;Humidity;BMP_temperature;BMP_pressure;BME280_temperature;BME280_humidity;BME280_pressure;Samples;Min_cycle;Max_cycle;Signal;HPM_P1;HPM_P2
2022/01/21 00:00:04;;;;;;;7.43;1.60;;;;;;;-1.51;70.98;102748.53;5070187;28;20223;-75
2022/01/21 00:02:35;;;;;;;6.13;1.60;;;;;;;-1.46;72.02;102754.00;5069007;28;20196;-72
2022/01/21 00:05:01;;;;;;;8.03;1.90;;;;;;;-1.43;72.23;102746.75;5068732;28;20189;-72
2022/01/21 00:07:26;;;;;;;6.03;1.50;;;;;;;-1.45;73.35;102744.13;5069871;28;20204;-73
2022/01/21 00:09:51;;;;;;;4.03;1.50;;;;;;;-1.45;73.19;102740.72;5069857;28;20218;-72
2022/01/21 00:12:17;;;;;;;8.13;1.70;;;;;;;-1.48;73.20;102737.91;5069750;28;20228;-73
2022/01/21 00:14:43;;;;;;;9.83;1.67;;;;;;;-1.47;73.62;102730.50;5068649;28;20197;-74
2022/01/21 00:17:09;;;;;;;5.43;1.43;;;;;;;-1.45;73.77;102734.09;5069654;28;20583;-72
2022/01/21 00:19:39;;;;;;;6.63;1.67;;;;;;;-1.45;73.97;102733.19;5069553;28;20192;-72
2022/01/21 00:30:20;;;;;;;5.90;1.60;;;;;;;-1.50;75.29;102726.84;5049971;28;20281;-72
2022/01/21 00:32:47;;;;;;;6.23;2.17;;;;;;;-1.51;75.20;102720.91;5064777;28;20215;-73
2022/01/21 00:35:15;;;;;;;6.40;1.20;;;;;;;-1.48;75.27;102726.25;5069521;28;20208;-74
2022/01/21 00:37:41;;;;;;;9.73;2.17;;;;;;;-1.50;75.24;102727.72;5069449;28;20587;-73
2022/01/21 00:40:10;;;;;;;5.20;1.67;;;;;;;-1.49;75.29;102723.56;5068188;28;20260;-74
2022/01/21 00:45:11;;;;;;;6.97;1.60;;;;;;;-1.51;75.61;102718.41;5068266;28;20254;-72
2022/01/21 00:47:36;;;;;;;5.33;1.97;;;;;;;-1.48;75.37;102720.31;5068344;28;20215;-72
2022/01/21 00:50:02;;;;;;;10.60;1.57;;;;;;;-1.52;75.68;102718.28;5067974;28;20188;-73
2022/01/21 00:52:28;;;;;;;6.70;1.33;;;;;;;-1.53;76.04;102724.00;5069401;28;20205;-72
2022/01/21 00:54:53;;;;;;;4.13;1.50;;;;;;;-1.57;75.89;102725.34;5069637;28;20199;-74
2022/01/21 00:57:18;;;;;;;6.93;1.40;;;;;;;-1.60;76.34;102732.56;5051385;28;20288;-72
2022/01/21 00:59:43;;;;;;;5.97;1.77;;;;;;;-1.58;76.45;102728.59;5064710;28;20220;-75
2022/01/21 01:02:09;;;;;;;7.67;1.70;;;;;;;-1.61;76.48;102733.31;5054325;28;20189;-72
2022/01/21 01:04:34;;;;;;;6.40;2.13;;;;;;;-1.60;76.38;102729.19;5069424;28;20178;-72
2022/01/21 01:07:00;;;;;;;12.17;2.10;;;;;;;-1.60;76.63;102735.09;5069659;28;20529;-72
2022/01/21 01:09:26;;;;;;;7.17;1.73;;;;;;;-1.60;76.93;102730.06;5084888;28;20292;-71
2022/01/21 01:12:15;;;;;;;4.67;1.70;;;;;;;-1.55;76.94;102731.41;5068199;28;20244;-72
2022/01/21 01:20:10;;;;;;;10.43;2.20;;;;;;;-1.47;76.53;102734.66;5067785;28;20307;-72
2022/01/21 01:23:09;;;;;;;7.30;2.17;;;;;;;-1.53;77.07;102737.47;5067726;28;20276;-72
2022/01/21 01:28:16;;;;;;;9.00;2.07;;;;;;;-1.54;76.76;102732.28;5067701;28;20223;-72
2022/01/21 01:30:42;;;;;;;7.67;1.87;;;;;;;-1.58;77.16;102731.13;5068190;28;20554;-73
2022/01/21 01:33:10;;;;;;;6.73;1.67;;;;;;;-1.58;77.54;102727.69;5068948;28;20690;-73
2022/01/21 01:35:35;;;;;;;3.70;1.53;;;;;;;-1.60;77.96;102721.66;5069129;28;20194;-73
2022/01/21 01:38:24;;;;;;;8.47;1.90;;;;;;;-1.62;77.93;102720.59;5052295;28;20258;-72
2022/01/21 01:40:58;;;;;;;7.70;2.03;;;;;;;-1.65;78.59;102728.72;5072878;28;20617;-73
2022/01/21 01:51:26;;;;;;;6.13;2.10;;;;;;;-1.57;78.12;102725.34;5071267;28;20213;-74
2022/01/21 01:53:53;;;;;;;8.90;1.90;;;;;;;-1.58;78.04;102726.09;5071153;28;20572;-74
2022/01/21 01:56:24;;;;;;;7.87;1.60;;;;;;;-1.56;77.75;102729.63;5070245;28;20211;-74
2022/01/21 01:58:49;;;;;;;8.37;2.07;;;;;;;-1.57;78.09;102724.44;5071061;28;20362;-72
2022/01/21 02:01:15;;;;;;;10.10;2.07;;;;;;;-1.57;78.19;102724.44;5071325;28;20205;-72
2022/01/21 02:03:40;;;;;;;9.13;1.60;;;;;;;-1.59;78.45;102715.91;5071346;28;20238;-72
2022/01/21 02:06:06;;;;;;;5.87;1.50;;;;;;;-1.57;78.39;102714.41;5072573;28;20181;-73
2022/01/21 02:08:32;;;;;;;6.77;1.57;;;;;;;-1.59;78.91;102711.78;5071007;28;20213;-72
2022/01/21 02:10:58;;;;;;;8.70;1.60;;;;;;;-1.60;78.68;102719.16;5072486;28;20276;-71
2022/01/21 02:13:30;;;;;;;6.93;1.80;;;;;;;-1.59;78.80;102714.28;5071033;28;20209;-73
2022/01/21 02:21:43;;;;;;;8.27;1.53;;;;;;;-1.63;79.38;102708.81;5070670;28;20188;-72
2022/01/21 02:24:15;;;;;;;7.47;1.70;;;;;;;-1.68;79.49;102707.47;5071034;28;20252;-72
2022/01/21 02:26:43;;;;;;;10.40;2.00;;;;;;;-1.69;80.28;102708.22;5067629;28;20208;-72
2022/01/21 02:29:10;;;;;;;6.57;1.83;;;;;;;-1.76;80.00;102699.19;5050614;28;20206;-73
2022/01/21 02:31:38;;;;;;;5.87;1.60;;;;;;;-1.82;79.85;102703.63;5050473;28;20180;-72
2022/01/21 02:34:05;;;;;;;5.67;1.57;;;;;;;-1.82;80.05;102713.66;5050418;28;20724;-72
2022/01/21 02:36:31;;;;;;;7.97;1.20;;;;;;;-1.71;80.32;102709.66;5051728;28;20182;-72
2022/01/21 02:38:56;;;;;;;5.67;1.67;;;;;;;-1.66;80.13;102711.91;5055472;28;20700;-72
2022/01/21 02:41:22;;;;;;;8.73;1.30;;;;;;;-1.69;80.00;102725.78;5070287;28;20228;-73
2022/01/21 02:43:50;;;;;;;5.93;1.43;;;;;;;-1.75;80.43;102736.09;5070238;28;20209;-72
2022/01/21 02:46:16;;;;;;;5.63;2.00;;;;;;;-1.81;80.47;102742.16;5070168;28;20219;-72
2022/01/21 02:48:43;;;;;;;8.57;2.17;;;;;;;-1.86;80.65;102744.22;5069495;28;20212;-72
2022/01/21 02:51:12;;;;;;;7.17;1.20;;;;;;;-1.91;80.42;102735.34;5069490;28;20254;-73
2022/01/21 02:56:16;;;;;;;7.10;1.50;;;;;;;-2.04;80.52;102733.97;5069965;28;20627;-74
2022/01/21 02:58:43;;;;;;;5.43;1.23;;;;;;;-2.09;80.20;102736.03;5070012;28;20619;-73
2022/01/21 03:01:08;;;;;;;8.20;1.60;;;;;;;-2.14;80.86;102724.66;5069983;28;20203;-73
2022/01/21 03:03:34;;;;;;;4.00;1.40;;;;;;;-2.14;80.94;102728.78;5069986;28;20193;-72
2022/01/21 03:06:01;;;;;;;6.87;1.50;;;;;;;-2.23;81.27;102726.25;5071129;28;20187;-73
2022/01/21 03:08:27;;;;;;;9.13;1.70;;;;;;;-2.24;81.72;102723.59;5069580;28;20217;-72
2022/01/21 03:10:53;;;;;;;6.27;1.73;;;;;;;-2.30;81.63;102725.50;5071180;28;20189;-71
2022/01/21 03:13:22;;;;;;;10.53;1.90;;;;;;;-2.28;81.75;102726.53;5069501;28;20459;-72
2022/01/21 03:15:48;;;;;;;8.90;1.40;;;;;;;-2.34;81.97;102715.88;5070899;28;20200;-73
2022/01/21 03:18:14;;;;;;;8.40;2.17;;;;;;;-2.37;82.06;102725.59;5069468;28;20205;-72
2022/01/21 03:20:39;;;;;;;8.37;1.60;;;;;;;-2.36;82.22;102718.25;5069391;28;20584;-73
2022/01/21 03:23:04;;;;;;;5.73;1.30;;;;;;;-2.43;81.98;102723.34;5069596;28;20555;-74
2022/01/21 03:25:30;;;;;;;8.60;1.70;;;;;;;-2.36;82.80;102737.41;5069458;28;20536;-72
2022/01/21 03:27:56;;;;;;;6.13;1.50;;;;;;;-2.48;82.46;102734.53;5069461;28;20700;-72
2022/01/21 03:30:24;;;;;;;4.87;1.93;;;;;;;-2.56;82.43;102737.94;5069408;28;21003;-73
2022/01/21 03:32:56;;;;;;;8.77;1.57;;;;;;;-2.60;81.98;102739.94;5069291;28;20470;-72
2022/01/21 03:35:21;;;;;;;5.40;1.70;;;;;;;-2.56;82.69;102737.94;5069231;28;20434;-73
2022/01/21 03:37:47;;;;;;;9.43;1.90;;;;;;;-2.58;82.42;102744.38;5052673;28;20201;-73
2022/01/21 03:40:14;;;;;;;5.70;1.47;;;;;;;-2.57;82.47;102745.28;5069154;28;20920;-75
2022/01/21 03:42:39;;;;;;;6.40;1.87;;;;;;;-2.56;82.50;102742.94;5069459;28;20813;-72
2022/01/21 03:45:05;;;;;;;10.70;1.73;;;;;;;-2.61;82.53;102745.69;5069346;28;20185;-73
2022/01/21 03:47:31;;;;;;;9.30;1.90;;;;;;;-2.63;82.35;102739.63;5069126;28;20232;-72
2022/01/21 03:50:08;;;;;;;5.53;1.50;;;;;;;-2.63;82.34;102735.50;5069084;28;20823;-73
2022/01/21 03:52:34;;;;;;;9.50;1.90;;;;;;;-2.62;82.11;102734.78;5068772;28;20720;-73
2022/01/21 03:54:59;;;;;;;7.60;1.83;;;;;;;-2.69;82.05;102722.38;5068944;28;20451;-72
2022/01/21 03:57:24;;;;;;;6.97;1.23;;;;;;;-2.65;82.79;102721.97;5069093;28;20232;-74
2022/01/21 03:59:50;;;;;;;6.53;2.13;;;;;;;-2.70;82.88;102722.22;5068792;28;20250;-74
2022/01/21 04:02:15;;;;;;;8.00;1.70;;;;;;;-2.77;82.77;102719.81;5067879;28;20192;-72
2022/01/21 04:04:40;;;;;;;8.87;2.10;;;;;;;-2.86;82.91;102712.25;5068720;28;20277;-71
2022/01/21 04:07:07;;;;;;;8.17;2.30;;;;;;;-2.90;83.24;102706.78;5068606;28;20196;-72
2022/01/21 04:09:38;;;;;;;9.10;2.07;;;;;;;-2.93;82.82;102709.88;5068387;28;20196;-74
2022/01/21 04:12:04;;;;;;;6.53;1.73;;;;;;;-2.99;83.39;102711.72;5068354;28;20459;-71
2022/01/21 04:14:32;;;;;;;9.63;1.43;;;;;;;-3.01;83.02;102713.19;5068407;28;20197;-72
2022/01/21 04:16:58;;;;;;;6.97;1.43;;;;;;;-3.03;82.72;102707.13;5068424;28;20526;-71
2022/01/21 04:19:23;;;;;;;4.33;1.90;;;;;;;-3.05;82.88;102702.69;5068100;28;20554;-72
2022/01/21 04:21:48;;;;;;;8.63;1.70;;;;;;;-3.02;82.98;102706.41;5068451;28;20699;-72
2022/01/21 04:24:16;;;;;;;5.03;1.67;;;;;;;-3.07;83.39;102706.66;5068738;28;20651;-71
2022/01/21 04:26:42;;;;;;;6.50;1.53;;;;;;;-3.09;84.33;102703.13;5068515;28;20435;-72
2022/01/21 04:29:10;;;;;;;9.57;2.30;;;;;;;-3.08;83.96;102704.91;5068096;28;20534;-71
2022/01/21 04:31:43;;;;;;;6.73;1.60;;;;;;;-3.05;84.15;102710.19;5069320;28;20485;-71
2022/01/21 04:34:09;;;;;;;7.40;1.90;;;;;;;-3.04;84.05;102704.50;5068339;28;20493;-71
2022/01/21 04:36:35;;;;;;;9.73;2.27;;;;;;;-3.03;84.58;102696.25;5068204;28;20423;-72
2022/01/21 04:39:03;;;;;;;14.40;1.97;;;;;;;-3.01;84.62;102692.25;5051395;28;20212;-73
2022/01/21 04:49:28;;;;;;;8.83;2.03;;;;;;;-3.00;85.77;102687.41;5067890;28;20963;-71
2022/01/21 04:52:03;;;;;;;8.57;2.10;;;;;;;-3.00;86.05;102679.00;5068108;28;20188;-74
2022/01/21 04:54:38;;;;;;;6.60;1.70;;;;;;;-3.08;86.07;102678.22;5068468;28;20189;-72
2022/01/21 04:57:05;;;;;;;8.53;1.70;;;;;;;-3.16;85.96;102683.19;5068293;28;20461;-75
2022/01/21 04:59:31;;;;;;;11.43;2.03;;;;;;;-3.22;86.11;102672.56;5068089;28;20254;-73
2022/01/21 05:01:56;;;;;;;6.73;1.47;;;;;;;-3.21;85.90;102676.81;5068096;28;20423;-73
2022/01/21 05:04:22;;;;;;;5.67;1.33;;;;;;;-3.25;86.38;102677.25;5067780;28;20242;-71
2022/01/21 05:06:51;;;;;;;10.33;2.10;;;;;;;-3.27;86.17;102673.69;5068124;28;20181;-71
2022/01/21 05:09:17;;;;;;;7.43;1.80;;;;;;;-3.30;85.97;102678.38;5068167;28;20548;-72
2022/01/21 05:11:47;;;;;;;8.40;1.97;;;;;;;-3.37;85.93;102675.97;5067915;28;20443;-72
2022/01/21 05:14:20;;;;;;;6.93;2.10;;;;;;;-3.37;85.72;102676.88;5070473;28;20546;-71
2022/01/21 05:17:02;;;;;;;7.07;2.00;;;;;;;-3.35;86.02;102682.91;5064923;28;20466;-71
2022/01/21 05:19:28;;;;;;;9.80;2.23;;;;;;;-3.38;85.91;102684.22;5071747;28;20472;-72
2022/01/21 05:22:05;;;;;;;9.30;1.93;;;;;;;-3.46;86.15;102693.44;5072175;28;20461;-71
2022/01/21 05:24:42;;;;;;;8.17;1.70;;;;;;;-3.43;85.96;102700.38;5071907;28;20438;-71
2022/01/21 05:27:11;;;;;;;14.20;3.60;;;;;;;-3.14;87.41;102697.63;5071837;28;20428;-71
2022/01/21 05:29:42;;;;;;;16.57;3.77;;;;;;;-2.82;89.65;102695.91;5055921;28;20185;-71
2022/01/21 05:32:20;;;;;;;12.77;2.90;;;;;;;-2.56;91.19;102691.91;5071806;28;20550;-72
2022/01/21 05:35:05;;;;;;;14.30;3.13;;;;;;;-2.26;92.35;102689.97;5073137;28;20488;-72
2022/01/21 05:37:39;;;;;;;16.80;2.40;;;;;;;-1.75;93.23;102695.94;5072076;28;20608;-73
2022/01/21 05:40:16;;;;;;;10.20;2.50;;;;;;;-1.58;93.41;102697.56;5073131;28;20922;-72
2022/01/21 05:42:58;;;;;;;14.80;2.37;;;;;;;-1.28;94.02;102695.50;5071583;28;20471;-72
2022/01/21 05:48:51;;;;;;;18.23;3.20;;;;;;;-1.00;94.76;102695.75;5071037;28;20270;-73
2022/01/21 05:51:49;;;;;;;21.40;3.97;;;;;;;-0.86;93.71;102697.06;5072482;28;20193;-71
2022/01/21 05:54:31;;;;;;;15.07;2.77;;;;;;;-0.69;94.06;102695.38;5071182;28;20862;-71
2022/01/21 05:57:20;;;;;;;13.13;3.07;;;;;;;-0.71;93.65;102683.41;5063192;28;20197;-73
2022/01/21 05:59:49;;;;;;;16.20;2.80;;;;;;;-0.58;93.36;102681.28;5072395;28;20242;-73
2022/01/21 06:02:15;;;;;;;14.67;2.60;;;;;;;-0.48;92.30;102683.91;5070935;28;20181;-72
2022/01/21 06:04:44;;;;;;;17.03;2.80;;;;;;;-0.40;91.45;102688.88;5071138;28;20195;-72
2022/01/21 06:07:10;;;;;;;10.83;2.67;;;;;;;-0.32;91.11;102684.56;5070991;28;20196;-71
2022/01/21 06:09:37;;;;;;;11.57;3.27;;;;;;;-0.23;90.40;102695.50;5072432;28;20184;-72
2022/01/21 06:12:04;;;;;;;14.77;2.83;;;;;;;-0.10;89.23;102691.69;5071245;28;20274;-71
2022/01/21 06:14:29;;;;;;;13.63;2.53;;;;;;;-0.15;88.97;102685.34;5072208;28;20408;-71
2022/01/21 06:16:56;;;;;;;12.53;3.37;;;;;;;-0.03;88.01;102688.97;5070759;28;20185;-74
2022/01/21 06:19:21;;;;;;;13.03;2.20;;;;;;;0.08;87.44;102690.84;5063734;28;20257;-73
2022/01/21 06:21:46;;;;;;;12.53;2.73;;;;;;;0.17;86.77;102698.31;5052088;28;20194;-71
2022/01/21 06:24:13;;;;;;;14.17;2.53;;;;;;;0.19;85.83;102705.28;5051238;28;20206;-71
2022/01/21 06:26:38;;;;;;;7.40;2.20;;;;;;;0.14;86.36;102711.53;5051892;28;20185;-71
2022/01/21 06:29:04;;;;;;;12.63;2.43;;;;;;;0.17;86.42;102708.41;5051621;28;20249;-72
2022/01/21 06:31:29;;;;;;;20.80;2.37;;;;;;;0.16;85.92;102709.16;5051700;28;20216;-71
2022/01/21 06:33:55;;;;;;;11.67;2.50;;;;;;;0.13;86.08;102713.91;5050248;28;20301;-72
2022/01/21 06:36:20;;;;;;;13.07;2.00;;;;;;;0.10;85.59;102713.66;5051779;28;20185;-71
2022/01/21 06:38:46;;;;;;;12.53;2.23;;;;;;;0.15;84.73;102725.88;5051395;28;20259;-75
2022/01/21 06:41:11;;;;;;;14.50;3.23;;;;;;;0.22;84.34;102736.53;5051570;28;20189;-72
2022/01/21 06:43:36;;;;;;;12.47;1.87;;;;;;;0.20;83.94;102733.88;5051584;28;20273;-73
2022/01/21 06:46:02;;;;;;;7.17;2.20;;;;;;;0.20;83.27;102743.94;5050320;28;20182;-76
2022/01/21 06:48:28;;;;;;;5.00;1.67;;;;;;;0.26;82.20;102736.94;5052681;28;20205;-73
2022/01/21 06:50:53;;;;;;;8.67;1.70;;;;;;;0.24;82.43;102751.91;5071490;28;20565;-71
2022/01/21 06:53:18;;;;;;;8.13;1.77;;;;;;;0.29;81.57;102752.31;5069811;28;20273;-72
2022/01/21 06:55:44;;;;;;;10.10;1.97;;;;;;;0.26;81.80;102761.25;5070138;28;20255;-72
2022/01/21 06:58:09;;;;;;;9.63;1.67;;;;;;;0.24;81.29;102761.09;5069688;28;20217;-72
2022/01/21 07:00:35;;;;;;;12.47;1.90;;;;;;;0.26;79.55;102759.59;5069924;28;20200;-72
2022/01/21 07:03:00;;;;;;;11.10;1.57;;;;;;;0.25;79.37;102767.91;5070962;28;20181;-74
2022/01/21 07:05:29;;;;;;;11.73;1.60;;;;;;;0.29;77.38;102767.44;5070002;28;20195;-70
2022/01/21 07:07:55;;;;;;;7.33;1.57;;;;;;;0.37;75.88;102766.50;5070975;28;20200;-74
2022/01/21 07:10:21;;;;;;;5.93;1.50;;;;;;;0.33;76.73;102777.91;5070860;28;20700;-73
2022/01/21 07:12:46;;;;;;;6.90;1.37;;;;;;;0.32;77.30;102780.28;5069387;28;20225;-72
2022/01/21 07:15:18;;;;;;;5.40;1.87;;;;;;;0.31;76.89;102786.06;5070978;28;20193;-72
2022/01/21 07:17:44;;;;;;;9.83;1.87;;;;;;;0.33;75.99;102794.69;5070837;28;20290;-72
2022/01/21 07:20:10;;;;;;;8.60;1.90;;;;;;;0.29;76.47;102792.63;5070846;28;20650;-75
2022/01/21 07:22:36;;;;;;;7.83;1.90;;;;;;;0.34;75.84;102791.41;5071071;28;20185;-75
2022/01/21 07:25:02;;;;;;;8.13;1.40;;;;;;;0.32;75.67;102787.84;5071021;28;20238;-74
2022/01/21 07:27:27;;;;;;;7.13;1.43;;;;;;;0.34;75.91;102791.41;5070684;28;20205;-75
2022/01/21 07:29:53;;;;;;;9.93;2.00;;;;;;;0.28;75.95;102798.41;5070582;28;20272;-72
2022/01/21 07:32:18;;;;;;;5.57;1.67;;;;;;;0.28;76.42;102800.94;5069356;28;20224;-72
2022/01/21 07:34:44;;;;;;;9.27;1.97;;;;;;;0.32;76.48;102802.09;5069183;28;20197;-74
2022/01/21 07:37:09;;;;;;;11.73;1.90;;;;;;;0.30;76.37;102801.94;5070365;28;20189;-72
2022/01/21 07:39:35;;;;;;;8.70;1.77;;;;;;;0.32;76.49;102802.09;5070189;28;20181;-72
2022/01/21 07:42:00;;;;;;;11.80;2.07;;;;;;;0.32;77.31;102804.59;5069134;28;20942;-73
2022/01/21 07:44:25;;;;;;;11.20;1.83;;;;;;;0.34;76.32;102804.00;5070426;28;20195;-71
2022/01/21 07:46:51;;;;;;;9.13;1.60;;;;;;;0.38;76.43;102807.69;5069021;28;20185;-73
2022/01/21 07:49:16;;;;;;;8.97;1.60;;;;;;;0.37;77.38;102801.78;5070090;28;20204;-75
2022/01/21 07:51:43;;;;;;;4.73;1.40;;;;;;;0.38;77.04;102810.19;5068994;28;20201;-72
2022/01/21 07:54:09;;;;;;;9.10;2.27;;;;;;;0.45;76.11;102810.03;5070182;28;20972;-73
2022/01/21 07:56:35;;;;;;;6.10;1.40;;;;;;;0.45;75.96;102810.03;5070076;28;20185;-74
2022/01/21 07:59:04;;;;;;;12.47;2.10;;;;;;;0.43;75.72;102811.50;5069776;28;20205;-72
2022/01/21 08:01:29;;;;;;;7.70;1.60;;;;;;;0.53;75.92;102817.50;5068809;28;20235;-72
2022/01/21 08:03:55;;;;;;;10.43;2.40;;;;;;;0.60;75.90;102814.81;5069849;28;20239;-75
2022/01/21 08:06:20;;;;;;;12.57;2.33;;;;;;;0.67;74.98;102812.09;5069953;28;20192;-74
2022/01/21 08:08:45;;;;;;;6.30;1.40;;;;;;;0.74;74.51;102816.03;5069736;28;20228;-72
2022/01/21 08:11:11;;;;;;;8.70;1.67;;;;;;;0.83;73.96;102822.78;5068597;28;20197;-77
2022/01/21 08:13:37;;;;;;;5.90;1.57;;;;;;;0.91;73.51;102829.38;5069894;28;20197;-74
2022/01/21 08:16:02;;;;;;;9.43;2.47;;;;;;;0.97;72.87;102835.00;5069968;28;20185;-71
2022/01/21 08:18:28;;;;;;;6.60;1.73;;;;;;;0.96;73.13;102837.38;5069524;28;20216;-72
2022/01/21 08:20:53;;;;;;;6.83;1.50;;;;;;;0.96;73.12;102839.91;5085359;28;20279;-74
2022/01/21 08:23:19;;;;;;;6.20;1.57;;;;;;;1.03;72.71;102849.75;5069882;28;20268;-72
2022/01/21 08:25:44;;;;;;;8.17;1.67;;;;;;;1.16;73.00;102851.00;5068656;28;20216;-72
2022/01/21 08:28:10;;;;;;;7.63;1.70;;;;;;;1.22;72.10;102853.16;5069500;28;20224;-73
2022/01/21 08:30:37;;;;;;;6.53;1.80;;;;;;;1.27;71.37;102849.41;5069683;28;20265;-74
2022/01/21 08:33:04;;;;;;;3.53;1.40;;;;;;;1.29;70.44;102848.78;5069641;28;20266;-72
2022/01/21 08:35:29;;;;;;;4.83;1.33;;;;;;;1.25;71.20;102846.78;5069690;28;20184;-72
2022/01/21 08:37:54;;;;;;;6.43;1.50;;;;;;;1.18;71.53;102844.44;5068305;28;20212;-73
2022/01/21 08:40:21;;;;;;;9.63;1.77;;;;;;;1.11;71.42;102847.19;5069933;28;20191;-72
2022/01/21 08:42:47;;;;;;;6.80;1.33;;;;;;;1.11;71.16;102851.34;5069578;28;20193;-73
2022/01/21 08:45:13;;;;;;;9.73;1.40;;;;;;;1.13;70.90;102853.25;5068328;28;20181;-75
2022/01/21 08:47:41;;;;;;;4.13;1.53;;;;;;;1.12;70.75;102848.06;5068907;28;20200;-72
2022/01/21 08:50:09;;;;;;;7.47;1.70;;;;;;;1.16;71.50;102858.59;5054481;28;20194;-74
2022/01/21 08:52:37;;;;;;;9.47;1.67;;;;;;;1.20;71.43;102868.19;5049440;28;20237;-75
2022/01/21 08:55:08;;;;;;;5.87;1.63;;;;;;;1.24;71.51;102871.88;5048168;28;20269;-73
2022/01/21 08:57:36;;;;;;;6.70;1.90;;;;;;;1.23;71.01;102868.44;5049363;28;20585;-74
2022/01/21 09:00:04;;;;;;;7.37;2.07;;;;;;;1.22;71.22;102863.25;5047924;28;20197;-73
2022/01/21 09:02:30;;;;;;;5.93;1.30;;;;;;;1.26;71.36;102865.31;5047786;28;20185;-72
2022/01/21 09:04:55;;;;;;;7.37;1.43;;;;;;;1.28;70.54;102862.16;5049338;28;21073;-72
2022/01/21 09:07:21;;;;;;;5.20;1.67;;;;;;;1.34;71.15;102866.88;5049291;28;20194;-73
2022/01/21 09:09:46;;;;;;;7.00;1.40;;;;;;;1.43;70.55;102867.69;5049295;28;20213;-75
2022/01/21 09:12:11;;;;;;;3.93;1.60;;;;;;;1.52;69.93;102869.34;5049277;28;20197;-72
2022/01/21 09:14:37;;;;;;;8.37;2.70;;;;;;;1.66;69.58;102870.59;5047835;28;20209;-73
2022/01/21 09:17:02;;;;;;;7.47;2.00;;;;;;;1.78;67.75;102869.09;5047902;28;20193;-72
2022/01/21 09:19:28;;;;;;;6.40;1.50;;;;;;;1.89;67.97;102869.28;5048798;28;20228;-74
2022/01/21 09:21:55;;;;;;;6.23;1.53;;;;;;;1.93;67.43;102866.25;5049110;28;20566;-73
2022/01/21 09:24:21;;;;;;;7.07;1.67;;;;;;;2.04;67.23;102865.56;5047874;28;20225;-73
2022/01/21 09:26:48;;;;;;;6.67;1.60;;;;;;;2.16;67.38;102876.69;5049135;28;20221;-73
2022/01/21 09:29:14;;;;;;;7.77;1.50;;;;;;;2.09;66.37;102878.56;5047467;28;20206;-73
2022/01/21 09:31:39;;;;;;;6.67;1.30;;;;;;;2.14;66.48;102889.94;5049013;28;20192;-76
2022/01/21 09:34:06;;;;;;;4.53;1.27;;;;;;;2.28;65.53;102889.47;5049040;28;20583;-72
2022/01/21 09:36:32;;;;;;;3.87;1.40;;;;;;;2.45;64.65;102887.63;5049427;28;20611;-73
2022/01/21 09:38:58;;;;;;;7.13;1.60;;;;;;;2.66;64.66;102881.81;5048899;28;20252;-72
2022/01/21 09:41:23;;;;;;;8.60;1.63;;;;;;;3.12;63.02;102881.47;5049333;28;20585;-72
2022/01/21 09:43:52;;;;;;;6.13;1.50;;;;;;;3.43;60.80;102880.63;5049148;28;20194;-72
2022/01/21 09:46:22;;;;;;;9.67;1.63;;;;;;;3.63;60.60;102870.47;5049086;28;20527;-72
2022/01/21 09:49:06;;;;;;;7.00;1.33;;;;;;;3.82;58.75;102877.06;5061654;28;20562;-72
2022/01/21 09:51:32;;;;;;;7.67;1.57;;;;;;;4.13;58.46;102876.16;5067776;28;20177;-73
2022/01/21 09:54:01;;;;;;;9.50;1.70;;;;;;;6.03;52.72;102864.25;5068856;28;20205;-72
2022/01/21 09:56:27;;;;;;;6.63;1.60;;;;;;;9.29;44.79;102837.69;5068916;28;20620;-73
2022/01/21 09:58:53;;;;;;;7.07;1.73;;;;;;;13.15;36.87;102814.94;5067274;28;20213;-71
2022/01/21 10:01:19;;;;;;;5.53;1.60;;;;;;;15.09;32.33;102810.19;5072055;28;20176;-71
2022/01/21 10:03:45;;;;;;;3.93;1.60;;;;;;;14.21;32.18;102806.28;5071908;28;20754;-71
2022/01/21 10:06:12;;;;;;;8.27;2.00;;;;;;;16.14;29.61;102821.25;5072174;28;20197;-71
2022/01/21 10:08:41;;;;;;;4.10;1.77;;;;;;;16.01;29.50;102825.19;5071900;28;20678;-72
2022/01/21 10:11:06;;;;;;;3.80;1.60;;;;;;;14.21;30.92;102828.56;5070771;28;20196;-71
2022/01/21 10:13:34;;;;;;;3.57;1.67;;;;;;;15.37;30.17;102813.75;5070775;28;20560;-72
2022/01/21 10:16:02;;;;;;;4.23;1.80;;;;;;;15.95;29.35;102813.78;5072097;28;20663;-73
2022/01/21 10:18:27;;;;;;;3.77;1.63;;;;;;;16.08;28.24;102816.81;5071487;28;20197;-71
2022/01/21 10:20:58;;;;;;;6.47;2.00;;;;;;;16.15;28.46;102828.16;5070616;28;20238;-71
2022/01/21 10:23:24;;;;;;;4.93;1.73;;;;;;;16.70;27.69;102827.19;5071739;28;20191;-72
2022/01/21 10:26:01;;;;;;;5.53;2.33;;;;;;;17.22;26.98;102817.28;5071887;28;20189;-74
2022/01/21 10:28:26;;;;;;;2.80;1.90;;;;;;;17.32;27.04;102832.19;5071626;28;20212;-72
2022/01/21 10:31:05;;;;;;;4.03;1.77;;;;;;;17.19;26.45;102827.59;5071904;28;20654;-72
2022/01/21 10:33:31;;;;;;;2.97;1.90;;;;;;;17.52;26.37;102841.38;5071710;28;20295;-72
2022/01/21 10:36:23;;;;;;;4.70;1.90;;;;;;;18.11;25.65;102840.97;5071759;28;20323;-72
2022/01/21 10:38:51;;;;;;;3.13;1.67;;;;;;;18.38;25.15;102838.06;5071296;28;20216;-72
2022/01/21 10:41:19;;;;;;;5.07;2.20;;;;;;;18.54;25.55;102840.09;5071347;28;20250;-73
2022/01/21 10:44:02;;;;;;;4.07;1.80;;;;;;;18.46;24.92;102832.19;5071763;28;20188;-72
2022/01/21 10:46:28;;;;;;;3.23;1.70;;;;;;;18.13;25.38;102843.56;5071641;28;20622;-73
2022/01/21 10:49:05;;;;;;;5.03;1.90;;;;;;;18.30;25.58;102844.78;5071129;28;20209;-72
2022/01/21 10:51:34;;;;;;;6.47;1.53;;;;;;;18.44;26.03;102843.38;5068795;28;20634;-74
2022/01/21 10:54:19;;;;;;;4.60;1.47;;;;;;;19.23;25.15;102851.75;5071282;28;20681;-72
2022/01/21 10:57:07;;;;;;;5.23;1.53;;;;;;;12.84;32.75;102862.50;5070762;28;20761;-71
2022/01/21 11:00:06;;;;;;;6.13;1.63;;;;;;;11.09;36.91;102870.50;5069892;28;20193;-71
2022/01/21 11:02:45;;;;;;;5.10;1.87;;;;;;;10.88;38.38;102869.41;5069758;28;20193;-70
2022/01/21 11:05:17;;;;;;;4.80;1.93;;;;;;;10.37;39.48;102869.28;5071539;28;20184;-73
2022/01/21 11:08:04;;;;;;;6.50;2.37;;;;;;;10.63;39.43;102866.41;5071304;28;20681;-72
2022/01/21 11:10:36;;;;;;;10.00;2.93;;;;;;;10.87;40.01;102866.81;5070774;28;20192;-73
2022/01/21 11:13:15;;;;;;;7.23;1.97;;;;;;;10.53;40.53;102871.88;5071092;28;20275;-72
2022/01/21 11:15:47;;;;;;;4.63;1.73;;;;;;;10.24;41.57;102871.13;5069457;28;20243;-72
2022/01/21 11:18:16;;;;;;;5.20;2.00;;;;;;;10.58;41.16;102857.63;5070674;28;20240;-73
2022/01/21 11:20:45;;;;;;;5.57;1.83;;;;;;;10.99;41.13;102858.03;5070702;28;20199;-71
2022/01/21 11:23:11;;;;;;;3.50;1.67;;;;;;;11.14;39.97;102857.88;5070685;28;20626;-73
2022/01/21 11:25:55;;;;;;;5.67;2.07;;;;;;;12.15;39.02;102849.16;5069551;28;20185;-71
2022/01/21 11:28:22;;;;;;;6.13;2.17;;;;;;;12.92;37.22;102844.84;5069125;28;20228;-73
2022/01/21 11:30:49;;;;;;;6.87;1.70;;;;;;;12.45;37.81;102854.78;5070590;28;20575;-71
2022/01/21 11:33:15;;;;;;;7.77;1.67;;;;;;;12.63;38.23;102853.00;5070231;28;20204;-71
2022/01/21 11:35:41;;;;;;;6.37;1.73;;;;;;;12.80;38.42;102852.00;5070500;28;20192;-72
2022/01/21 11:38:09;;;;;;;4.60;1.80;;;;;;;12.91;38.17;102846.50;5070135;28;20215;-71
2022/01/21 11:40:36;;;;;;;5.60;2.00;;;;;;;12.99;38.72;102849.47;5070244;28;20582;-72
2022/01/21 11:43:03;;;;;;;10.00;2.50;;;;;;;12.90;38.13;102837.03;5070452;28;20723;-71
2022/01/21 11:48:50;;;;;;;9.13;2.80;;;;;;;12.87;39.51;102836.03;5069785;28;20213;-71
2022/01/21 11:50:57;;;;;;;5.53;2.83;;;;;;;12.68;40.03;102836.09;5052930;28;20639;-72
2022/01/21 11:53:45;;;;;;;7.27;3.17;;;;;;;12.82;39.39;102824.69;5055824;28;20224;-72
2022/01/21 11:56:33;;;;;;;9.77;3.43;;;;;;;12.76;40.31;102834.72;5060794;28;20189;-72
2022/01/21 11:59:09;;;;;;;4.33;3.00;;;;;;;13.16;39.70;102838.16;5053111;28;20205;-72
2022/01/21 12:01:46;;;;;;;6.53;2.93;;;;;;;13.28;40.17;102833.53;5090411;28;20183;-72
2022/01/21 12:04:12;;;;;;;6.17;2.70;;;;;;;13.25;39.70;102825.66;5089064;28;20228;-71
2022/01/21 12:06:38;;;;;;;5.53;2.33;;;;;;;12.82;40.55;102825.56;5072820;28;20232;-71
2022/01/21 12:09:04;;;;;;;7.60;3.07;;;;;;;12.18;42.49;102827.84;5068395;28;20204;-71
2022/01/21 12:11:35;;;;;;;5.53;2.10;;;;;;;11.35;43.91;102825.63;5068859;28;20205;-70
2022/01/21 12:14:05;;;;;;;9.90;2.33;;;;;;;10.77;45.74;102816.75;5053660;28;20296;-72
2022/01/21 12:17:01;;;;;;;7.67;2.30;;;;;;;10.26;47.47;102819.22;5068311;28;20681;-72
2022/01/21 12:19:34;;;;;;;11.77;2.30;;;;;;;9.81;49.09;102821.84;5069841;28;20262;-73
2022/01/21 12:22:13;;;;;;;10.13;2.60;;;;;;;10.04;49.11;102818.88;5067905;28;20196;-72